Time;durP1;ratioP1;P1;durP2;ratioP2;P2;SDS_P1;SDS_P2;PMS_P1;PMS_P2;Temp;Humidity;BMP_temperature;BMP_pressure;BME280_temperature;BME280_humidity;BME280_pressure;Samples;Min_cycle;Max_cycle;Signal;HPM_P1;HPM_P2
2021/01/20 00:01:14;;;;;;;25.38;13.65;;;103.00;1561.60;;;;;;5092854;28;20059;-57
2021/01/20 00:03:40;;;;;;;24.00;12.95;;;103.10;1536.00;;;;;;5092984;28;20028;-57
2021/01/20 00:06:06;;;;;;;22.55;13.18;;;103.10;1536.00;;;;;;5097159;28;20052;-57
2021/01/20 00:08:32;;;;;;;21.38;12.15;;;103.10;1536.00;;;;;;5109818;28;20024;-57
2021/01/20 00:10:57;;;;;;;21.15;11.80;;;103.10;1561.60;;;;;;5110496;28;20485;-57
2021/01/20 00:13:23;;;;;;;19.50;11.07;;;103.10;1536.00;;;;;;5106937;28;20484;-58
2021/01/20 00:15:50;;;;;;;19.02;11.07;;;103.10;1536.00;;;;;;5097289;28;20069;-57
2021/01/20 00:18:16;;;;;;;19.70;11.10;;;103.20;1536.00;;;;;;5102486;28;20028;-57
2021/01/20 00:20:42;;;;;;;18.83;10.40;;;103.30;1536.00;;;;;;5092215;28;20127;-57
2021/01/20 00:23:08;;;;;;;20.33;10.60;;;103.30;1484.80;;;;;;5093351;28;20479;-58
2021/01/20 00:25:33;;;;;;;20.77;10.88;;;128.00;1536.00;;;;;;5106976;28;20020;-57
2021/01/20 00:27:59;;;;;;;19.15;9.80;;;128.00;1536.00;;;;;;5083088;28;20012;-57
2021/01/20 00:30:25;;;;;;;18.75;10.15;;;128.20;1510.40;;;;;;5099257;28;20161;-57
2021/01/20 00:32:51;;;;;;;17.85;9.07;;;128.30;1510.40;;;;;;5099214;28;20023;-57
2021/01/20 00:35:21;;;;;;;20.77;9.90;;;128.40;1510.40;;;;;;5099340;28;20481;-57
2021/01/20 00:37:47;;;;;;;18.02;9.95;;;128.40;1510.40;;;;;;5098825;28;20162;-57
2021/01/20 00:40:13;;;;;;;19.25;10.15;;;128.60;1484.80;;;;;;5099553;28;20031;-57
2021/01/20 00:42:39;;;;;;;17.13;10.05;;;128.60;1484.80;;;;;;5113134;28;20036;-57
2021/01/20 00:45:05;;;;;;;16.25;9.15;;;128.60;1484.80;;;;;;5099433;28;20103;-57
2021/01/20 00:47:31;;;;;;;23.60;11.48;;;128.70;1459.20;;;;;;5099134;28;20028;-57
2021/01/20 00:49:57;;;;;;;18.20;11.00;;;128.80;1459.20;;;;;;5098912;28;20031;-57
2021/01/20 00:52:22;;;;;;;17.55;9.38;;;128.80;1459.20;;;;;;5099118;28;20024;-57
2021/01/20 00:54:49;;;;;;;15.77;8.65;;;128.80;1459.20;;;;;;5099081;28;20035;-57
2021/01/20 00:57:15;;;;;;;14.02;8.05;;;128.70;1459.20;;;;;;5098968;28;20023;-57
2021/01/20 00:59:41;;;;;;;15.23;9.02;;;128.80;1459.20;;;;;;5099084;28;20542;-57
2021/01/20 01:02:06;;;;;;;14.35;7.95;;;128.90;1459.20;;;;;;5098806;28;20035;-57
2021/01/20 01:04:32;;;;;;;13.00;7.95;;;153.60;1433.60;;;;;;5080970;28;20048;-58
2021/01/20 01:06:58;;;;;;;11.50;6.72;;;153.70;1433.60;;;;;;5117671;28;20027;-57
2021/01/20 01:09:23;;;;;;;12.90;7.68;;;153.60;1459.20;;;;;;5119530;28;20468;-57
2021/01/20 01:11:49;;;;;;;13.23;7.55;;;153.70;1433.60;;;;;;5112135;28;20022;-56
2021/01/20 01:14:16;;;;;;;11.90;7.57;;;153.70;1433.60;;;;;;5080933;28;20475;-57
2021/01/20 01:16:42;;;;;;;12.48;7.18;;;153.70;1433.60;;;;;;5099021;28;20107;-57
2021/01/20 01:19:08;;;;;;;14.00;7.63;;;153.70;1433.60;;;;;;5098749;28;20028;-57
2021/01/20 01:21:36;;;;;;;13.75;7.35;;;153.70;1433.60;;;;;;5098424;28;20058;-57
2021/01/20 01:24:02;;;;;;;14.68;7.75;;;153.70;1433.60;;;;;;5098864;28;20099;-57
2021/01/20 01:26:28;;;;;;;14.60;7.57;;;153.60;1459.20;;;;;;5098639;28;20123;-57
2021/01/20 01:28:54;;;;;;;13.05;6.80;;;153.70;1433.60;;;;;;5098794;28;20090;-57
2021/01/20 01:31:19;;;;;;;16.20;7.88;;;153.70;1433.60;;;;;;5098829;28;20478;-57
2021/01/20 01:33:45;;;;;;;13.07;6.78;;;153.70;1433.60;;;;;;5098721;28;20023;-57
2021/01/20 01:36:11;;;;;;;13.63;6.95;;;153.70;1433.60;;;;;;5098765;28;20035;-58
2021/01/20 01:38:37;;;;;;;12.95;7.20;;;153.80;1433.60;;;;;;5096207;28;20008;-57
2021/01/20 01:41:02;;;;;;;15.70;7.43;;;153.90;1433.60;;;;;;5095934;28;20032;-58
2021/01/20 01:43:28;;;;;;;14.93;8.05;;;153.90;1433.60;;;;;;5095120;28;20024;-58
2021/01/20 01:45:54;;;;;;;12.82;7.20;;;153.90;1433.60;;;;;;5095452;28;20023;-57
2021/01/20 01:48:19;;;;;;;12.50;6.63;;;153.80;1433.60;;;;;;5095463;28;20055;-57
2021/01/20 01:50:48;;;;;;;11.38;6.63;;;153.80;1433.60;;;;;;5095501;28;20020;-57
2021/01/20 01:53:14;;;;;;;;;;;153.80;1408.00;;;;;;5095722;28;20462;-57
2021/01/20 01:55:41;;;;;;;14.32;6.57;;;153.80;1433.60;;;;;;5095155;28;19904;-57
2021/01/20 01:58:07;;;;;;;13.50;7.10;;;153.80;1408.00;;;;;;5095179;28;20049;-58
2021/01/20 02:00:33;;;;;;;12.52;6.95;;;153.80;1433.60;;;;;;5095205;28;20034;-57
2021/01/20 02:03:00;;;;;;;11.98;6.68;;;153.80;1433.60;;;;;;5094882;28;20047;-57
2021/01/20 02:05:26;;;;;;;12.02;6.82;;;153.90;1408.00;;;;;;5095127;28;20048;-58
2021/01/20 02:07:52;;;;;;;14.32;6.72;;;153.90;1408.00;;;;;;5100901;28;20020;-58
2021/01/20 02:10:18;;;;;;;11.15;6.45;;;154.00;1408.00;;;;;;5096740;28;20459;-57
2021/01/20 02:13:16;;;;;;;12.18;6.10;;;154.00;1408.00;;;;;;5111516;28;20098;-57
2021/01/20 02:16:09;;;;;;;10.35;6.30;;;153.90;1408.00;;;;;;4993268;28;20045;-57
2021/01/20 02:18:37;;;;;;;10.23;5.97;;;153.90;1433.60;;;;;;4992891;28;20116;-57
2021/01/20 02:21:33;;;;;;;12.55;6.10;;;153.90;1433.60;;;;;;4992993;28;20428;-57
2021/01/20 02:24:01;;;;;;;10.38;5.68;;;154.00;1408.00;;;;;;4993868;28;20038;-57
2021/01/20 02:26:47;;;;;;;11.90;6.43;;;154.00;1408.00;;;;;;5025009;28;20034;-57
2021/01/20 02:29:43;;;;;;;11.60;6.18;;;153.90;1433.60;;;;;;5012159;28;20030;-57
2021/01/20 02:32:10;;;;;;;10.57;5.68;;;154.00;1408.00;;;;;;5012261;28;20165;-58
2021/01/20 02:34:37;;;;;;;12.82;6.57;;;154.00;1408.00;;;;;;5012218;28;20026;-57
2021/01/20 02:37:05;;;;;;;12.70;5.95;;;154.10;1408.00;;;;;;5012341;28;20041;-57
2021/01/20 02:39:31;;;;;;;9.25;5.72;;;154.10;1408.00;;;;;;5011929;28;20113;-57
2021/01/20 02:42:04;;;;;;;8.63;5.38;;;154.20;1382.40;;;;;;5020672;28;20037;-58
2021/01/20 02:44:34;;;;;;;12.38;6.00;;;154.30;1382.40;;;;;;5016447;28;20029;-57
2021/01/20 02:47:00;;;;;;;11.10;5.30;;;154.20;1408.00;;;;;;5012014;28;20038;-58
2021/01/20 02:49:26;;;;;;;10.00;5.68;;;154.30;1382.40;;;;;;5011753;28;20026;-57
2021/01/20 02:52:04;;;;;;;13.80;5.75;;;154.40;1382.40;;;;;;5022908;28;20037;-58
2021/01/20 02:54:31;;;;;;;9.27;5.13;;;154.30;1382.40;;;;;;5088368;28;20050;-58
2021/01/20 02:56:59;;;;;;;10.23;4.90;;;154.30;1382.40;;;;;;5094013;28;20061;-58
2021/01/20 02:59:26;;;;;;;10.25;6.13;;;154.30;1408.00;;;;;;5093972;28;20077;-58
2021/01/20 03:01:55;;;;;;;12.85;6.90;;;154.40;1382.40;;;;;;5093788;28;20478;-58
2021/01/20 03:04:22;;;;;;;10.07;5.72;;;154.30;1382.40;;;;;;5094142;28;20547;-58
2021/01/20 03:06:50;;;;;;;10.27;6.07;;;154.40;1382.40;;;;;;5111522;28;20392;-58
2021/01/20 03:09:16;;;;;;;10.40;5.70;;;154.40;1382.40;;;;;;5114057;28;20032;-58
2021/01/20 03:11:49;;;;;;;10.30;5.13;;;154.40;1382.40;;;;;;5114036;28;20035;-58
2021/01/20 03:14:18;;;;;;;9.93;5.00;;;154.30;1382.40;;;;;;5114095;28;20031;-57
2021/01/20 03:16:44;;;;;;;10.13;5.22;;;154.30;1382.40;;;;;;5114729;28;20114;-57
2021/01/20 03:19:10;;;;;;;12.52;5.63;;;154.40;1382.40;;;;;;5085427;28;20439;-57
2021/01/20 03:21:36;;;;;;;11.68;5.22;;;154.40;1408.00;;;;;;5113943;28;20107;-58
2021/01/20 03:24:02;;;;;;;8.20;4.63;;;154.30;1382.40;;;;;;5095037;28;20044;-57
2021/01/20 03:26:27;;;;;;;11.13;5.05;;;154.40;1382.40;;;;;;5093585;28;20028;-58
2021/01/20 03:28:53;;;;;;;12.63;4.88;;;154.40;1382.40;;;;;;5093036;28;20529;-58
2021/01/20 03:31:19;;;;;;;9.88;4.78;;;154.50;1382.40;;;;;;5093579;28;20020;-58
2021/01/20 03:33:44;;;;;;;8.68;5.15;;;154.40;1382.40;;;;;;5099579;28;20019;-58
2021/01/20 03:36:10;;;;;;;11.18;5.57;;;154.30;1382.40;;;;;;5110441;28;20057;-58
2021/01/20 03:38:36;;;;;;;8.48;4.82;;;154.30;1382.40;;;;;;5110782;28;20020;-57
2021/01/20 03:41:02;;;;;;;9.85;4.72;;;154.40;1382.40;;;;;;5113660;28;20607;-58
2021/01/20 03:43:28;;;;;;;11.38;5.22;;;154.40;1382.40;;;;;;5093894;28;20413;-58
2021/01/20 03:45:54;;;;;;;9.90;4.90;;;154.40;1382.40;;;;;;5093176;28;20024;-58
2021/01/20 03:48:20;;;;;;;12.32;5.18;;;154.40;1382.40;;;;;;5093634;28;20469;-57
2021/01/20 03:50:45;;;;;;;7.32;4.00;;;154.50;1382.40;;;;;;5093367;28;20066;-58
2021/01/20 03:53:11;;;;;;;7.03;4.60;;;154.40;1382.40;;;;;;5092958;28;20063;-58
2021/01/20 03:55:37;;;;;;;10.85;4.78;;;154.40;1382.40;;;;;;5093167;28;20470;-58
2021/01/20 03:58:02;;;;;;;16.73;5.70;;;154.40;1408.00;;;;;;5093280;28;20028;-58
2021/01/20 04:00:28;;;;;;;7.32;4.82;;;154.50;1382.40;;;;;;5095783;28;20024;-63
2021/01/20 04:02:54;;;;;;;9.40;4.78;;;154.50;1382.40;;;;;;5096792;28;20099;-59
2021/01/20 04:05:19;;;;;;;8.57;4.43;;;179.20;1382.40;;;;;;5096994;28;20052;-58
2021/01/20 04:07:45;;;;;;;11.40;4.70;;;179.20;1356.80;;;;;;5094937;28;20019;-58
2021/01/20 04:10:11;;;;;;;7.35;4.22;;;179.20;1356.80;;;;;;5093003;28;20491;-57
2021/01/20 04:12:38;;;;;;;7.75;4.13;;;179.30;1356.80;;;;;;5092281;28;20020;-58
2021/01/20 04:15:05;;;;;;;6.70;3.92;;;179.30;1356.80;;;;;;5092936;28;20412;-57
2021/01/20 04:17:31;;;;;;;8.82;4.03;;;179.40;1356.80;;;;;;5092415;28;20031;-58
2021/01/20 04:19:56;;;;;;;9.20;4.03;;;179.40;1356.80;;;;;;5093191;28;20020;-57
2021/01/20 04:22:23;;;;;;;6.63;3.85;;;179.40;1356.80;;;;;;5092566;28;20047;-58
2021/01/20 04:24:49;;;;;;;8.82;3.80;;;179.50;1356.80;;;;;;5092657;28;20012;-57
2021/01/20 04:27:15;;;;;;;8.07;4.07;;;179.60;1331.20;;;;;;5092911;28;20093;-57
2021/01/20 04:29:40;;;;;;;10.98;4.35;;;179.60;1356.80;;;;;;5092752;28;20082;-57
2021/01/20 04:32:06;;;;;;;6.40;3.45;;;179.60;1356.80;;;;;;5092629;28;20028;-57
2021/01/20 04:34:32;;;;;;;8.05;4.00;;;179.60;1356.80;;;;;;5092499;28;20036;-58
2021/01/20 04:36:58;;;;;;;6.05;3.60;;;179.60;1356.80;;;;;;5092609;28;20103;-58
2021/01/20 04:39:24;;;;;;;8.43;4.15;;;179.70;1331.20;;;;;;5092548;28;20024;-58
2021/01/20 04:41:50;;;;;;;8.60;4.05;;;179.70;1356.80;;;;;;5092241;28;20028;-58
2021/01/20 04:44:15;;;;;;;11.45;4.30;;;179.60;1356.80;;;;;;5092131;28;20100;-57
2021/01/20 04:46:43;;;;;;;14.32;4.28;;;179.70;1356.80;;;;;;5092477;28;20031;-57
2021/01/20 04:49:14;;;;;;;6.93;4.07;;;179.70;1356.80;;;;;;5092665;28;20031;-58
2021/01/20 04:51:41;;;;;;;8.82;4.60;;;179.70;1356.80;;;;;;5092595;28;20028;-58
2021/01/20 04:54:10;;;;;;;5.75;4.13;;;179.70;1331.20;;;;;;5092178;28;20024;-58
2021/01/20 04:56:36;;;;;;;8.45;4.93;;;179.70;1356.80;;;;;;5092281;28;20031;-57
2021/01/20 04:59:03;;;;;;;10.38;3.85;;;179.70;1331.20;;;;;;5091977;28;20083;-58
2021/01/20 05:01:29;;;;;;;8.10;4.53;;;179.70;1356.80;;;;;;5092025;28;20058;-57
2021/01/20 05:03:56;;;;;;;15.25;4.35;;;179.70;1356.80;;;;;;5092107;28;20040;-57
2021/01/20 05:06:22;;;;;;;8.23;3.95;;;179.70;1331.20;;;;;;5092553;28;20484;-57
2021/01/20 05:08:47;;;;;;;7.93;3.95;;;179.70;1356.80;;;;;;5092180;28;20024;-57
2021/01/20 05:11:14;;;;;;;7.35;3.83;;;179.60;1356.80;;;;;;5092724;28;20376;-63
2021/01/20 05:13:40;;;;;;;6.55;4.20;;;179.70;1356.80;;;;;;5093710;28;20417;-57
2021/01/20 05:16:05;;;;;;;18.38;8.57;;;179.60;1356.80;;;;;;5096188;28;20032;-57
2021/01/20 05:18:47;;;;;;;10.23;5.32;;;179.50;1382.40;;;;;;5096026;28;20024;-57
2021/01/20 05:21:19;;;;;;;8.82;3.95;;;179.60;1382.40;;;;;;5095917;28;20089;-58
2021/01/20 05:23:45;;;;;;;7.65;3.85;;;179.60;1356.80;;;;;;5095880;28;20478;-58
2021/01/20 05:26:11;;;;;;;10.63;3.70;;;179.60;1356.80;;;;;;5096021;28;20054;-58
2021/01/20 05:28:37;;;;;;;13.05;4.00;;;179.60;1356.80;;;;;;5095744;28;20032;-58
2021/01/20 05:31:04;;;;;;;7.88;3.80;;;179.70;1356.80;;;;;;5095843;28;20056;-58
2021/01/20 05:33:37;;;;;;;6.03;3.50;;;179.60;1356.80;;;;;;5078008;28;20397;-57
2021/01/20 05:36:03;;;;;;;5.70;3.45;;;179.70;1356.80;;;;;;5095822;28;20024;-57
2021/01/20 05:38:49;;;;;;;8.57;3.97;;;179.70;1331.20;;;;;;5095757;28;20042;-57
2021/01/20 05:41:16;;;;;;;7.53;3.83;;;179.70;1356.80;;;;;;5088700;28;20036;-58
2021/01/20 05:43:41;;;;;;;10.43;3.85;;;179.70;1356.80;;;;;;5095385;28;20458;-58
2021/01/20 05:46:09;;;;;;;7.68;3.92;;;179.70;1356.80;;;;;;5095421;28;20119;-58
2021/01/20 05:48:47;;;;;;;8.75;4.28;;;179.60;1382.40;;;;;;5095537;28;20020;-57
2021/01/20 05:51:13;;;;;;;8.02;3.90;;;179.70;1382.40;;;;;;5095543;28;20028;-58
2021/01/20 05:53:53;;;;;;;10.80;4.55;;;179.60;1382.40;;;;;;5095044;28;20115;-58
2021/01/20 05:56:37;;;;;;;13.13;4.75;;;179.60;1382.40;;;;;;5095498;28;20416;-58
2021/01/20 05:59:10;;;;;;;11.85;4.50;;;179.70;1382.40;;;;;;5095326;28;20020;-57
2021/01/20 06:01:37;;;;;;;9.02;4.63;;;179.70;1382.40;;;;;;5095253;28;20436;-57
2021/01/20 06:04:05;;;;;;;13.77;5.72;;;179.70;1382.40;;;;;;5095157;28;20035;-57
2021/01/20 06:06:32;;;;;;;10.50;5.38;;;179.80;1382.40;;;;;;5095142;28;20363;-58
2021/01/20 06:08:58;;;;;;;13.13;5.57;;;179.60;1382.40;;;;;;5093694;28;20016;-58
2021/01/20 06:11:24;;;;;;;17.27;5.53;;;179.60;1382.40;;;;;;5094831;28;20042;-59
2021/01/20 06:13:51;;;;;;;14.70;6.07;;;179.60;1382.40;;;;;;5095062;28;20028;-59
2021/01/20 06:16:25;;;;;;;11.70;6.38;;;179.80;1382.40;;;;;;5095836;28;20028;-59
2021/01/20 06:19:12;;;;;;;9.45;5.53;;;179.60;1408.00;;;;;;5097474;28;20023;-60
2021/01/20 06:21:41;;;;;;;8.25;5.03;;;179.60;1408.00;;;;;;5101870;28;20020;-60
2021/01/20 06:24:13;;;;;;;20.97;12.10;;;179.60;1433.60;;;;;;5110822;28;20027;-60
2021/01/20 06:26:55;;;;;;;27.45;15.73;;;179.60;1459.20;;;;;;5110399;28;20378;-60
2021/01/20 06:29:28;;;;;;;28.67;18.83;;;179.50;1510.40;;;;;;5091736;28;20062;-60
2021/01/20 06:31:55;;;;;;;31.45;19.13;;;179.30;1536.00;;;;;;5095735;28;20020;-60
2021/01/20 06:34:21;;;;;;;55.55;29.50;;;154.50;1536.00;;;;;;5115315;28;20091;-59
2021/01/20 06:36:47;;;;;;;42.85;23.50;;;154.40;1587.20;;;;;;5102013;28;20517;-59
2021/01/20 06:39:29;;;;;;;36.17;22.45;;;154.40;1587.20;;;;;;5089953;28;20039;-59
2021/01/20 06:41:55;;;;;;;38.83;23.00;;;154.20;1612.80;;;;;;5088769;28;20055;-59
2021/01/20 06:44:22;;;;;;;40.17;23.33;;;154.20;1612.80;;;;;;5084828;28;20028;-59
2021/01/20 06:46:56;;;;;;;39.25;24.35;;;154.10;1612.80;;;;;;5098084;28;20444;-59
2021/01/20 06:49:28;;;;;;;40.17;25.33;;;154.10;1638.40;;;;;;5104469;28;20028;-59
2021/01/20 06:52:14;;;;;;;43.65;26.08;;;154.00;1638.40;;;;;;5092908;28;20158;-59
2021/01/20 06:54:43;;;;;;;40.38;24.77;;;154.00;1638.40;;;;;;5093708;28;20048;-59
2021/01/20 06:57:29;;;;;;;46.45;26.10;;;154.10;1638.40;;;;;;5093976;28;20426;-58
2021/01/20 07:00:07;;;;;;;44.00;24.38;;;154.10;1664.00;;;;;;5093851;28;20416;-59
2021/01/20 07:02:33;;;;;;;42.88;25.13;;;154.10;1638.40;;;;;;5094120;28;20442;-59
2021/01/20 07:05:00;;;;;;;50.00;27.23;;;154.20;1638.40;;;;;;5093857;28;20032;-59
2021/01/20 07:07:54;;;;;;;46.38;27.60;;;154.30;1612.80;;;;;;5094232;28;20036;-58
2021/01/20 07:10:25;;;;;;;42.58;25.70;;;154.30;1587.20;;;;;;5087745;28;20016;-58
2021/01/20 07:13:09;;;;;;;44.20;26.77;;;154.30;1587.20;;;;;;5093882;28;20048;-58
2021/01/20 07:15:39;;;;;;;49.08;28.45;;;154.30;1587.20;;;;;;5093964;28;20506;-60
2021/01/20 07:18:06;;;;;;;46.83;27.50;;;154.40;1587.20;;;;;;5094046;28;20028;-61
2021/01/20 07:20:33;;;;;;;47.70;27.73;;;154.50;1561.60;;;;;;5079627;28;20028;-62
2021/01/20 07:23:00;;;;;;;44.05;28.13;;;154.40;1561.60;;;;;;5093889;28;20463;-61
2021/01/20 07:25:26;;;;;;;48.88;28.88;;;179.20;1561.60;;;;;;5093524;28;20027;-61
2021/01/20 07:27:55;;;;;;;53.97;33.00;;;179.30;1561.60;;;;;;5074869;28;20012;-60
2021/01/20 07:30:21;;;;;;;61.78;34.95;;;179.40;1561.60;;;;;;5093344;28;20419;-61
2021/01/20 07:32:47;;;;;;;45.47;28.40;;;179.30;1561.60;;;;;;5093455;28;20075;-61
2021/01/20 07:35:17;;;;;;;53.78;34.58;;;179.30;1561.60;;;;;;5093763;28;20113;-62
2021/01/20 07:37:44;;;;;;;48.72;29.80;;;179.40;1587.20;;;;;;5092963;28;20465;-61
2021/01/20 07:40:11;;;;;;;54.90;31.13;;;179.50;1561.60;;;;;;5096519;28;20858;-69
2021/01/20 07:42:40;;;;;;;49.42;31.08;;;179.60;1561.60;;;;;;5098394;28;20047;-61
2021/01/20 07:45:07;;;;;;;55.20;32.92;;;179.70;1536.00;;;;;;5101452;28;20425;-59
2021/01/20 07:47:46;;;;;;;54.03;32.78;;;179.90;1536.00;;;;;;5093974;28;20487;-59
2021/01/20 07:50:12;;;;;;;;;;;179.90;1536.00;;;;;;5094597;28;20028;-59
2021/01/20 07:52:39;;;;;;;55.53;32.70;;;180.10;1484.80;;;;;;5095536;28;20273;-58
2021/01/20 07:55:15;;;;;;;49.70;29.67;;;180.10;1484.80;;;;;;5073151;28;20389;-59
2021/01/20 07:57:41;;;;;;;62.78;33.35;;;204.80;1484.80;;;;;;5090916;28;20503;-59
2021/01/20 08:00:08;;;;;;;63.85;33.45;;;204.90;1484.80;;;;;;5096956;28;20032;-58
2021/01/20 08:02:45;;;;;;;66.72;34.03;;;205.10;1459.20;;;;;;5096787;28;20024;-58
2021/01/20 08:05:11;;;;;;;79.70;35.10;;;205.40;1433.60;;;;;;5093263;28;20048;-59
2021/01/20 08:07:37;;;;;;;53.45;25.48;;;205.60;1408.00;;;;;;5091937;28;20059;-58
2021/01/20 08:10:04;;;;;;;43.03;23.67;;;230.40;1356.80;;;;;;5094733;28;20519;-59
2021/01/20 08:12:32;;;;;;;36.13;19.88;;;230.60;1331.20;;;;;;5102744;28;20053;-58
2021/01/20 08:15:00;;;;;;;42.53;20.40;;;230.80;1305.60;;;;;;5078696;28;20039;-58
2021/01/20 08:17:26;;;;;;;33.40;18.23;;;230.80;1305.60;;;;;;5097276;28;20032;-58
2021/01/20 08:19:55;;;;;;;27.80;13.52;;;231.00;1280.00;;;;;;5112834;28;20019;-59
2021/01/20 08:22:21;;;;;;;25.90;14.88;;;231.20;1254.40;;;;;;5086841;28;20036;-61
2021/01/20 08:24:49;;;;;;;23.85;12.63;;;256.00;1254.40;;;;;;5104434;28;20082;-59
2021/01/20 08:27:28;;;;;;;35.33;15.10;;;256.20;1203.20;;;;;;5092774;28;20492;-60
2021/01/20 08:29:55;;;;;;;26.40;12.23;;;256.30;1228.80;;;;;;5095369;28;20032;-59
2021/01/20 08:32:21;;;;;;;24.23;11.80;;;256.40;1177.60;;;;;;5097730;28;20039;-58
2021/01/20 08:34:49;;;;;;;25.33;12.52;;;256.50;1177.60;;;;;;5093363;28;20363;-61
2021/01/20 08:37:39;;;;;;;28.57;13.47;;;256.60;1177.60;;;;;;5093535;28;20358;-56
2021/01/20 08:40:06;;;;;;;25.27;13.27;;;256.70;1177.60;;;;;;5093229;28;20024;-60
2021/01/20 08:42:35;;;;;;;22.02;12.73;;;256.90;1152.00;;;;;;5092526;28;20032;-56
2021/01/20 08:45:19;;;;;;;26.45;14.48;;;281.70;1152.00;;;;;;5098174;28;20024;-56
2021/01/20 08:47:51;;;;;;;17.77;11.25;;;281.80;1177.60;;;;;;5100768;28;20194;-57
2021/01/20 08:50:26;;;;;;;24.38;12.95;;;281.80;1152.00;;;;;;5096630;28;20477;-56
2021/01/20 08:52:52;;;;;;;22.20;11.95;;;281.90;1152.00;;;;;;5078278;28;20019;-58
2021/01/20 08:55:35;;;;;;;23.83;12.15;;;281.90;1152.00;;;;;;5096539;28;20028;-57
2021/01/20 08:58:30;;;;;;;25.77;11.82;;;282.00;1152.00;;;;;;5096405;28;20020;-56
2021/01/20 09:01:21;;;;;;;21.40;11.23;;;282.00;1126.40;;;;;;5096210;28;20490;-56
2021/01/20 09:03:55;;;;;;;25.08;14.75;;;282.00;1126.40;;;;;;5096517;28;20039;-55
2021/01/20 09:06:21;;;;;;;26.58;12.23;;;282.10;1152.00;;;;;;5096370;28;20051;-56
2021/01/20 09:08:49;;;;;;;27.40;13.48;;;282.10;1126.40;;;;;;5096078;28;20024;-56
2021/01/20 09:11:14;;;;;;;24.38;12.48;;;282.00;1152.00;;;;;;5096286;28;20374;-56
2021/01/20 09:13:44;;;;;;;34.83;13.75;;;282.00;1152.00;;;;;;5096186;28;20046;-56
2021/01/20 09:16:10;;;;;;;19.08;12.18;;;282.10;1152.00;;;;;;5096313;28;20028;-56
2021/01/20 09:18:36;;;;;;;18.77;10.68;;;282.00;1152.00;;;;;;5095775;28;20016;-56
2021/01/20 09:21:02;;;;;;;21.83;11.65;;;282.00;1152.00;;;;;;5096259;28;20028;-56
2021/01/20 09:23:28;;;;;;;23.60;14.90;;;282.00;1177.60;;;;;;5096163;28;20023;-56
2021/01/20 09:25:54;;;;;;;21.63;13.48;;;282.00;1177.60;;;;;;5096032;28;20523;-56
2021/01/20 09:28:20;;;;;;;20.65;13.57;;;282.10;1177.60;;;;;;5096358;28;20039;-57
2021/01/20 09:30:46;;;;;;;19.65;12.98;;;282.20;1177.60;;;;;;5095828;28;20020;-56
2021/01/20 09:33:12;;;;;;;23.25;12.98;;;282.20;1177.60;;;;;;5095869;28;20369;-56
2021/01/20 09:35:38;;;;;;;17.33;11.90;;;282.20;1177.60;;;;;;5095615;28;20032;-57
2021/01/20 09:38:06;;;;;;;18.08;11.88;;;282.20;1177.60;;;;;;5095976;28;20042;-56
2021/01/20 09:40:32;;;;;;;27.85;15.70;;;282.30;1203.20;;;;;;5095609;28;20032;-56
2021/01/20 09:42:58;;;;;;;18.85;12.05;;;282.20;1203.20;;;;;;5096577;28;20032;-56
2021/01/20 09:45:29;;;;;;;27.40;13.93;;;282.20;1203.20;;;;;;5115983;28;20012;-56
2021/01/20 09:47:56;;;;;;;15.95;11.15;;;282.20;1228.80;;;;;;5112250;28;20085;-56
2021/01/20 09:50:23;;;;;;;16.70;8.43;;;282.20;1254.40;;;;;;5097890;28;20020;-56
2021/01/20 09:52:50;;;;;;;21.42;11.25;;;282.10;1254.40;;;;;;5109588;28;20032;-55
2021/01/20 09:55:16;;;;;;;12.48;8.40;;;282.00;1305.60;;;;;;5104228;28;20019;-56
2021/01/20 09:57:42;;;;;;;19.35;11.18;;;282.10;1305.60;;;;;;5100918;28;20046;-56
2021/01/20 10:00:09;;;;;;;16.38;10.32;;;282.20;1331.20;;;;;;5100385;28;20020;-57
2021/01/20 10:02:37;;;;;;;12.60;7.40;;;282.30;1331.20;;;;;;5103040;28;20052;-56
2021/01/20 10:05:03;;;;;;;15.43;9.13;;;282.50;1280.00;;;;;;5086568;28;20032;-56
2021/01/20 10:07:29;;;;;;;13.25;8.63;;;307.30;1331.20;;;;;;5095195;28;20462;-61
2021/01/20 10:09:54;;;;;;;13.50;7.53;;;307.30;1280.00;;;;;;5095088;28;20031;-56
2021/01/20 10:12:20;;;;;;;12.27;8.02;;;307.40;1254.40;;;;;;5095019;28;20486;-56
2021/01/20 10:14:46;;;;;;;15.30;9.60;;;307.40;1228.80;;;;;;5094758;28;20377;-56
2021/01/20 10:17:12;;;;;;;13.75;9.60;;;307.60;1254.40;;;;;;5101540;28;20350;-58
2021/01/20 10:19:38;;;;;;;13.13;8.07;;;307.60;1228.80;;;;;;5102890;28;20081;-56
2021/01/20 10:22:04;;;;;;;17.20;7.90;;;307.70;1228.80;;;;;;5094183;28;20036;-58
2021/01/20 10:24:30;;;;;;;10.80;6.53;;;307.80;1228.80;;;;;;5094899;28;20483;-58
2021/01/20 10:26:57;;;;;;;14.63;7.00;;;307.80;1203.20;;;;;;5094470;28;20032;-57
2021/01/20 10:29:24;;;;;;;12.32;7.90;;;307.80;1203.20;;;;;;5094760;28;20035;-58
2021/01/20 10:31:50;;;;;;;12.73;8.63;;;307.70;1203.20;;;;;;5094390;28;20024;-58
2021/01/20 10:34:15;;;;;;;15.07;8.65;;;307.80;1203.20;;;;;;5094846;28;20024;-57
2021/01/20 10:36:41;;;;;;;13.32;7.32;;;307.70;1203.20;;;;;;5094685;28;20114;-58
2021/01/20 10:39:09;;;;;;;14.65;9.65;;;307.70;1152.00;;;;;;5094781;28;20408;-58
2021/01/20 10:41:35;;;;;;;18.58;10.48;;;307.80;1203.20;;;;;;5105686;28;20465;-58
2021/01/20 10:44:01;;;;;;;16.15;9.30;;;307.80;1177.60;;;;;;5114569;28;20069;-58
2021/01/20 10:46:27;;;;;;;14.18;8.77;;;307.80;1152.00;;;;;;5115252;28;20031;-56
2021/01/20 10:49:01;;;;;;;16.10;10.40;;;308.00;1152.00;;;;;;5096625;28;20024;-57
2021/01/20 10:51:34;;;;;;;16.17;9.75;;;332.80;1331.20;;;;;;5100709;28;20437;-56
2021/01/20 10:54:00;;;;;;;13.25;8.27;;;332.90;1126.40;;;;;;5093937;28;20103;-58
2021/01/20 10:56:26;;;;;;;16.38;9.82;;;332.90;1126.40;;;;;;5110304;28;20076;-56
2021/01/20 10:58:52;;;;;;;20.05;10.68;;;333.10;1126.40;;;;;;5111927;28;20023;-58
2021/01/20 11:01:17;;;;;;;18.45;10.60;;;333.20;1100.80;;;;;;5112890;28;20058;-58
2021/01/20 11:03:45;;;;;;;14.90;10.85;;;333.30;1100.80;;;;;;5111942;28;20031;-56
2021/01/20 11:06:11;;;;;;;20.27;11.18;;;333.30;1100.80;;;;;;5113724;28;20145;-57
2021/01/20 11:08:37;;;;;;;19.70;10.50;;;333.30;1100.80;;;;;;5110690;28;20540;-56
2021/01/20 11:11:02;;;;;;;19.02;11.73;;;333.40;1100.80;;;;;;5109603;28;20700;-58
2021/01/20 11:13:29;;;;;;;15.77;8.75;;;333.50;1075.20;;;;;;5111526;28;20030;-57
2021/01/20 11:15:55;;;;;;;22.40;10.70;;;333.60;1049.60;;;;;;5110699;28;20019;-57
2021/01/20 11:18:22;;;;;;;28.95;19.38;;;333.60;1075.20;;;;;;5112786;28;20016;-56
2021/01/20 11:20:48;;;;;;;21.17;9.88;;;333.70;1075.20;;;;;;5112398;28;20473;-56
2021/01/20 11:23:17;;;;;;;20.77;9.52;;;358.40;1049.60;;;;;;5112765;28;20037;-56
2021/01/20 11:25:47;;;;;;;29.45;11.18;;;358.40;1075.20;;;;;;5110138;28;20457;-56
2021/01/20 11:28:14;;;;;;;16.20;9.13;;;358.40;1049.60;;;;;;5105806;28;20476;-56
2021/01/20 11:30:40;;;;;;;23.10;11.32;;;358.40;1024.00;;;;;;5112020;28;20031;-57
2021/01/20 11:33:07;;;;;;;17.83;9.45;;;358.50;1024.00;;;;;;5111673;28;20427;-56
2021/01/20 11:35:33;;;;;;;24.77;11.32;;;358.60;1024.00;;;;;;5112898;28;20023;-56
2021/01/20 11:37:59;;;;;;;22.90;12.82;;;358.70;1024.00;;;;;;5110532;28;20032;-57
2021/01/20 11:40:29;;;;;;;14.60;9.25;;;358.80;1024.00;;;;;;5108248;28;20505;-56
2021/01/20 11:42:59;;;;;;;21.95;10.38;;;358.80;998.40;;;;;;5107209;28;20035;-56
2021/01/20 11:45:26;;;;;;;22.67;10.20;;;358.80;998.40;;;;;;5111747;28;20047;-57
2021/01/20 11:47:52;;;;;;;13.83;8.07;;;358.90;1024.00;;;;;;5110885;28;20019;-56
2021/01/20 11:50:19;;;;;;;17.05;11.10;;;358.90;972.80;;;;;;5112308;28;20015;-57
2021/01/20 11:52:45;;;;;;;19.75;13.68;;;358.70;998.40;;;;;;5112401;28;20024;-57
2021/01/20 11:55:12;;;;;;;16.45;11.13;;;358.70;1024.00;;;;;;5106830;28;20556;-57
2021/01/20 11:57:38;;;;;;;22.25;10.52;;;358.60;1024.00;;;;;;5108971;28;20024;-56
2021/01/20 12:00:04;;;;;;;18.33;11.98;;;358.60;998.40;;;;;;5109041;28;20031;-56
2021/01/20 12:02:30;;;;;;;31.25;15.25;;;358.60;1024.00;;;;;;5111894;28;20031;-56
2021/01/20 12:04:55;;;;;;;20.70;9.60;;;358.70;1024.00;;;;;;5111606;28;20044;-56
2021/01/20 12:07:21;;;;;;;17.50;10.20;;;358.80;1024.00;;;;;;5112610;28;20535;-57
2021/01/20 12:09:47;;;;;;;17.45;10.10;;;358.80;1024.00;;;;;;5110365;28;20407;-56
2021/01/20 12:12:12;;;;;;;12.52;9.38;;;359.00;1152.00;;;;;;5108211;28;20031;-57